Terminal Aerodrome Forecast
Issued by NWS Pocatello, ID

Home | Current Version | Previous Version | Text Only | Print | Product List | Glossary On
Versions: 1 2 3 4 5 6 7 8 9 10 11 12 13
613
FTUS45 KPIH 200647 AAA
TAFBYI
TAF AMD
KBYI 200647Z 2007/2106 21009KT P6SM BKN200
     FM200800 21007KT P6SM BKN100
     FM201400 26025G35KT P6SM -SHRA SCT020 OVC050
     FM201900 28025G35KT P6SM VCSH SCT050 BKN080
     FM210200 24014KT P6SM SCT060 OVC120=

USA.gov is the U.S. government's official web portal to all federal, state and local government web resources and services.